sensor_id;sensor_type;location;lat;lon;timestamp;temperature;humidity
18083;DHT22;9168;51.194;6.840;2022-11-20T00:01:12;5.60;99.90
18083;DHT22;9168;51.194;6.840;2022-11-20T00:03:39;5.60;99.90
18083;DHT22;9168;51.194;6.840;2022-11-20T00:06:10;5.60;99.90
18083;DHT22;9168;51.194;6.840;2022-11-20T00:08:37;5.60;99.90
18083;DHT22;9168;51.194;6.840;2022-11-20T00:11:05;5.60;99.90
18083;DHT22;9168;51.194;6.840;2022-11-20T00:13:32;5.60;99.90
18083;DHT22;9168;51.194;6.840;2022-11-20T00:16:00;5.50;99.90
18083;DHT22;9168;51.194;6.840;2022-11-20T00:18:27;5.50;99.90
18083;DHT22;9168;51.194;6.840;2022-11-20T00:21:00;5.50;99.90
18083;DHT22;9168;51.194;6.840;2022-11-20T00:23:29;5.50;99.90
18083;DHT22;9168;51.194;6.840;2022-11-20T00:25:56;5.50;99.90
18083;DHT22;9168;51.194;6.840;2022-11-20T00:28:22;5.50;99.90
18083;DHT22;9168;51.194;6.840;2022-11-20T00:30:49;5.40;99.90
18083;DHT22;9168;51.194;6.840;2022-11-20T00:33:16;5.50;99.90
18083;DHT22;9168;51.194;6.840;2022-11-20T00:35:43;5.40;99.90
18083;DHT22;9168;51.194;6.840;2022-11-20T00:38:10;5.40;99.90
18083;DHT22;9168;51.194;6.840;2022-11-20T00:40:38;5.40;99.90
18083;DHT22;9168;51.194;6.840;2022-11-20T00:43:05;5.40;99.90
18083;DHT22;9168;51.194;6.840;2022-11-20T00:45:31;5.40;99.90
18083;DHT22;9168;51.194;6.840;2022-11-20T00:47:58;5.50;99.90
18083;DHT22;9168;51.194;6.840;2022-11-20T00:50:25;5.50;99.90
18083;DHT22;9168;51.194;6.840;2022-11-20T00:52:52;5.50;99.90
18083;DHT22;9168;51.194;6.840;2022-11-20T00:55:19;5.50;99.90
18083;DHT22;9168;51.194;6.840;2022-11-20T00:57:47;5.50;99.90
18083;DHT22;9168;51.194;6.840;2022-11-20T01:00:14;5.50;99.90
18083;DHT22;9168;51.194;6.840;2022-11-20T01:02:41;5.50;99.90
18083;DHT22;9168;51.194;6.840;2022-11-20T01:05:08;5.50;99.90
18083;DHT22;9168;51.194;6.840;2022-11-20T01:07:35;5.50;99.90
18083;DHT22;9168;51.194;6.840;2022-11-20T01:10:02;5.50;99.90
18083;DHT22;9168;51.194;6.840;2022-11-20T01:12:29;5.50;99.90
18083;DHT22;9168;51.194;6.840;2022-11-20T01:14:57;5.60;99.90
18083;DHT22;9168;51.194;6.840;2022-11-20T01:17:24;5.50;99.90
18083;DHT22;9168;51.194;6.840;2022-11-20T01:19:51;5.50;99.90
18083;DHT22;9168;51.194;6.840;2022-11-20T01:22:18;5.40;99.90
18083;DHT22;9168;51.194;6.840;2022-11-20T01:24:44;5.40;99.90
18083;DHT22;9168;51.194;6.840;2022-11-20T01:27:11;5.40;99.90
18083;DHT22;9168;51.194;6.840;2022-11-20T01:29:38;5.40;99.90
18083;DHT22;9168;51.194;6.840;2022-11-20T01:32:06;5.40;99.90
18083;DHT22;9168;51.194;6.840;2022-11-20T01:34:33;5.40;99.90
18083;DHT22;9168;51.194;6.840;2022-11-20T01:37:00;5.40;99.90
18083;DHT22;9168;51.194;6.840;2022-11-20T01:39:27;5.40;99.90
18083;DHT22;9168;51.194;6.840;2022-11-20T01:41:55;5.40;99.90
18083;DHT22;9168;51.194;6.840;2022-11-20T01:44:50;5.40;99.90
18083;DHT22;9168;51.194;6.840;2022-11-20T01:47:22;5.40;99.90
18083;DHT22;9168;51.194;6.840;2022-11-20T01:49:54;5.40;99.90
18083;DHT22;9168;51.194;6.840;2022-11-20T01:52:26;5.50;99.90
18083;DHT22;9168;51.194;6.840;2022-11-20T01:54:57;5.50;99.90
18083;DHT22;9168;51.194;6.840;2022-11-20T01:57:27;5.50;99.90
18083;DHT22;9168;51.194;6.840;2022-11-20T01:59:59;5.50;99.90
18083;DHT22;9168;51.194;6.840;2022-11-20T02:02:28;5.50;99.90
18083;DHT22;9168;51.194;6.840;2022-11-20T02:04:58;5.40;99.90
18083;DHT22;9168;51.194;6.840;2022-11-20T02:07:27;5.40;99.90
18083;DHT22;9168;51.194;6.840;2022-11-20T02:09:55;5.30;99.90
18083;DHT22;9168;51.194;6.840;2022-11-20T02:12:22;5.30;99.90
18083;DHT22;9168;51.194;6.840;2022-11-20T02:15:06;5.40;99.90
18083;DHT22;9168;51.194;6.840;2022-11-20T02:17:35;5.30;99.90
18083;DHT22;9168;51.194;6.840;2022-11-20T02:20:02;5.40;99.90
18083;DHT22;9168;51.194;6.840;2022-11-20T02:22:34;5.40;99.90
18083;DHT22;9168;51.194;6.840;2022-11-20T02:25:04;5.40;99.90
18083;DHT22;9168;51.194;6.840;2022-11-20T02:27:32;5.40;99.90
18083;DHT22;9168;51.194;6.840;2022-11-20T02:30:01;5.30;99.90
18083;DHT22;9168;51.194;6.840;2022-11-20T02:32:30;5.30;99.90
18083;DHT22;9168;51.194;6.840;2022-11-20T02:34:57;5.10;99.90
18083;DHT22;9168;51.194;6.840;2022-11-20T02:37:30;4.90;99.90
18083;DHT22;9168;51.194;6.840;2022-11-20T02:39:59;4.80;99.90
18083;DHT22;9168;51.194;6.840;2022-11-20T02:42:27;4.70;99.90
18083;DHT22;9168;51.194;6.840;2022-11-20T02:44:54;4.60;99.90
18083;DHT22;9168;51.194;6.840;2022-11-20T02:47:21;4.50;99.90
18083;DHT22;9168;51.194;6.840;2022-11-20T02:49:47;4.40;99.90
18083;DHT22;9168;51.194;6.840;2022-11-20T02:52:14;4.30;99.90
18083;DHT22;9168;51.194;6.840;2022-11-20T02:54:41;4.20;99.90
18083;DHT22;9168;51.194;6.840;2022-11-20T02:57:08;4.10;99.90
18083;DHT22;9168;51.194;6.840;2022-11-20T02:59:36;4.00;99.90
18083;DHT22;9168;51.194;6.840;2022-11-20T03:02:03;4.00;99.90
18083;DHT22;9168;51.194;6.840;2022-11-20T03:04:30;3.90;99.90
18083;DHT22;9168;51.194;6.840;2022-11-20T03:06:57;3.80;99.90
18083;DHT22;9168;51.194;6.840;2022-11-20T03:09:24;3.80;99.90
18083;DHT22;9168;51.194;6.840;2022-11-20T03:11:51;3.80;99.90
18083;DHT22;9168;51.194;6.840;2022-11-20T03:14:18;3.80;99.90
18083;DHT22;9168;51.194;6.840;2022-11-20T03:16:46;3.90;99.90
18083;DHT22;9168;51.194;6.840;2022-11-20T03:19:13;3.90;99.90
18083;DHT22;9168;51.194;6.840;2022-11-20T03:21:40;4.00;99.90
18083;DHT22;9168;51.194;6.840;2022-11-20T03:24:07;4.00;99.90
18083;DHT22;9168;51.194;6.840;2022-11-20T03:26:34;4.00;99.90
18083;DHT22;9168;51.194;6.840;2022-11-20T03:29:03;4.00;99.90
18083;DHT22;9168;51.194;6.840;2022-11-20T03:31:31;4.00;99.90
18083;DHT22;9168;51.194;6.840;2022-11-20T03:34:00;4.00;99.90
18083;DHT22;9168;51.194;6.840;2022-11-20T03:36:28;4.00;99.90
18083;DHT22;9168;51.194;6.840;2022-11-20T03:38:56;4.00;99.90
18083;DHT22;9168;51.194;6.840;2022-11-20T03:41:25;4.00;99.90
18083;DHT22;9168;51.194;6.840;2022-11-20T03:43:53;4.00;99.90
18083;DHT22;9168;51.194;6.840;2022-11-20T03:46:20;4.00;99.90
18083;DHT22;9168;51.194;6.840;2022-11-20T03:48:48;4.00;99.90
18083;DHT22;9168;51.194;6.840;2022-11-20T03:51:19;4.10;99.90
18083;DHT22;9168;51.194;6.840;2022-11-20T03:53:47;4.10;99.90
18083;DHT22;9168;51.194;6.840;2022-11-20T03:56:17;4.10;99.90
18083;DHT22;9168;51.194;6.840;2022-11-20T03:58:45;4.10;99.90
18083;DHT22;9168;51.194;6.840;2022-11-20T04:01:14;4.20;99.90
18083;DHT22;9168;51.194;6.840;2022-11-20T04:03:43;4.30;99.90
18083;DHT22;9168;51.194;6.840;2022-11-20T04:06:13;4.20;99.90
18083;DHT22;9168;51.194;6.840;2022-11-20T04:08:41;4.30;99.90
18083;DHT22;9168;51.194;6.840;2022-11-20T04:11:10;4.30;99.90
18083;DHT22;9168;51.194;6.840;2022-11-20T04:13:37;4.30;99.90
18083;DHT22;9168;51.194;6.840;2022-11-20T04:16:04;4.40;99.90
18083;DHT22;9168;51.194;6.840;2022-11-20T04:18:31;4.40;99.90
18083;DHT22;9168;51.194;6.840;2022-11-20T04:20:58;4.40;99.90
18083;DHT22;9168;51.194;6.840;2022-11-20T04:23:26;4.50;99.90
18083;DHT22;9168;51.194;6.840;2022-11-20T04:25:54;4.50;99.90
18083;DHT22;9168;51.194;6.840;2022-11-20T04:28:21;4.50;99.90
18083;DHT22;9168;51.194;6.840;2022-11-20T04:30:48;4.50;99.90
18083;DHT22;9168;51.194;6.840;2022-11-20T04:33:15;4.60;99.90
18083;DHT22;9168;51.194;6.840;2022-11-20T04:35:42;4.60;99.90
18083;DHT22;9168;51.194;6.840;2022-11-20T04:38:09;4.60;99.90
18083;DHT22;9168;51.194;6.840;2022-11-20T04:40:36;4.70;99.90
18083;DHT22;9168;51.194;6.840;2022-11-20T04:43:04;4.70;99.90
18083;DHT22;9168;51.194;6.840;2022-11-20T04:45:31;4.70;99.90
18083;DHT22;9168;51.194;6.840;2022-11-20T04:47:58;4.70;99.90
18083;DHT22;9168;51.194;6.840;2022-11-20T04:50:25;4.70;99.90
18083;DHT22;9168;51.194;6.840;2022-11-20T04:52:51;4.80;99.90
18083;DHT22;9168;51.194;6.840;2022-11-20T04:55:18;4.80;99.90
18083;DHT22;9168;51.194;6.840;2022-11-20T04:57:45;4.80;99.90
18083;DHT22;9168;51.194;6.840;2022-11-20T05:00:17;4.90;99.90
18083;DHT22;9168;51.194;6.840;2022-11-20T05:02:44;4.90;99.90
18083;DHT22;9168;51.194;6.840;2022-11-20T05:05:11;4.90;99.90
18083;DHT22;9168;51.194;6.840;2022-11-20T05:07:38;4.90;99.90
18083;DHT22;9168;51.194;6.840;2022-11-20T05:10:06;4.90;99.90
18083;DHT22;9168;51.194;6.840;2022-11-20T05:12:33;4.90;99.90
18083;DHT22;9168;51.194;6.840;2022-11-20T05:15:00;4.90;99.90
18083;DHT22;9168;51.194;6.840;2022-11-20T05:17:28;4.80;99.90
18083;DHT22;9168;51.194;6.840;2022-11-20T05:19:55;4.80;99.90
18083;DHT22;9168;51.194;6.840;2022-11-20T05:22:22;4.80;99.90
18083;DHT22;9168;51.194;6.840;2022-11-20T05:24:48;4.80;99.90
18083;DHT22;9168;51.194;6.840;2022-11-20T05:27:15;4.70;99.90
18083;DHT22;9168;51.194;6.840;2022-11-20T05:29:42;4.70;99.90
18083;DHT22;9168;51.194;6.840;2022-11-20T05:32:09;4.80;99.90
18083;DHT22;9168;51.194;6.840;2022-11-20T05:34:37;4.80;99.90
18083;DHT22;9168;51.194;6.840;2022-11-20T05:37:04;4.80;99.90
18083;DHT22;9168;51.194;6.840;2022-11-20T05:39:31;4.80;99.90
18083;DHT22;9168;51.194;6.840;2022-11-20T05:41:58;4.80;99.90
18083;DHT22;9168;51.194;6.840;2022-11-20T05:44:39;4.80;99.90
18083;DHT22;9168;51.194;6.840;2022-11-20T05:47:06;4.80;99.90
18083;DHT22;9168;51.194;6.840;2022-11-20T05:49:33;4.90;99.90
18083;DHT22;9168;51.194;6.840;2022-11-20T05:52:01;4.90;99.90
18083;DHT22;9168;51.194;6.840;2022-11-20T05:54:28;4.90;99.90
18083;DHT22;9168;51.194;6.840;2022-11-20T05:56:55;4.90;99.90
18083;DHT22;9168;51.194;6.840;2022-11-20T05:59:21;4.90;99.90
18083;DHT22;9168;51.194;6.840;2022-11-20T06:01:48;4.90;99.90
18083;DHT22;9168;51.194;6.840;2022-11-20T06:04:15;4.90;99.90
18083;DHT22;9168;51.194;6.840;2022-11-20T06:06:42;4.90;99.90
18083;DHT22;9168;51.194;6.840;2022-11-20T06:09:10;4.90;99.90
18083;DHT22;9168;51.194;6.840;2022-11-20T06:11:37;4.90;99.90
18083;DHT22;9168;51.194;6.840;2022-11-20T06:14:04;4.90;99.90
18083;DHT22;9168;51.194;6.840;2022-11-20T06:16:31;5.00;99.90
18083;DHT22;9168;51.194;6.840;2022-11-20T06:18:58;4.90;99.90
18083;DHT22;9168;51.194;6.840;2022-11-20T06:21:25;5.00;99.90
18083;DHT22;9168;51.194;6.840;2022-11-20T06:23:52;5.00;99.90
18083;DHT22;9168;51.194;6.840;2022-11-20T06:26:22;5.00;99.90
18083;DHT22;9168;51.194;6.840;2022-11-20T06:28:50;5.00;99.90
18083;DHT22;9168;51.194;6.840;2022-11-20T06:31:19;5.00;99.90
18083;DHT22;9168;51.194;6.840;2022-11-20T06:33:46;5.00;99.90
18083;DHT22;9168;51.194;6.840;2022-11-20T06:36:15;5.00;99.90
18083;DHT22;9168;51.194;6.840;2022-11-20T06:38:43;4.90;99.90
18083;DHT22;9168;51.194;6.840;2022-11-20T06:41:12;5.00;99.90
18083;DHT22;9168;51.194;6.840;2022-11-20T06:43:40;4.90;99.90
18083;DHT22;9168;51.194;6.840;2022-11-20T06:46:09;4.90;99.90
18083;DHT22;9168;51.194;6.840;2022-11-20T06:48:36;4.90;99.90
18083;DHT22;9168;51.194;6.840;2022-11-20T06:51:04;4.80;99.90
18083;DHT22;9168;51.194;6.840;2022-11-20T06:53:31;4.70;99.90
18083;DHT22;9168;51.194;6.840;2022-11-20T06:55:58;4.50;99.90
18083;DHT22;9168;51.194;6.840;2022-11-20T06:58:27;4.50;99.90
18083;DHT22;9168;51.194;6.840;2022-11-20T07:00:57;4.40;99.90
18083;DHT22;9168;51.194;6.840;2022-11-20T07:03:24;4.30;99.90
18083;DHT22;9168;51.194;6.840;2022-11-20T07:05:53;4.20;99.90
18083;DHT22;9168;51.194;6.840;2022-11-20T07:08:20;4.20;99.90
18083;DHT22;9168;51.194;6.840;2022-11-20T07:10:47;4.10;99.90
18083;DHT22;9168;51.194;6.840;2022-11-20T07:13:14;4.00;99.90
18083;DHT22;9168;51.194;6.840;2022-11-20T07:15:41;3.90;99.90
18083;DHT22;9168;51.194;6.840;2022-11-20T07:18:09;3.90;99.90
18083;DHT22;9168;51.194;6.840;2022-11-20T07:20:36;3.90;99.90
18083;DHT22;9168;51.194;6.840;2022-11-20T07:23:03;3.90;99.90
18083;DHT22;9168;51.194;6.840;2022-11-20T07:25:30;3.90;99.90
18083;DHT22;9168;51.194;6.840;2022-11-20T07:27:57;3.80;99.90
18083;DHT22;9168;51.194;6.840;2022-11-20T07:30:24;3.90;99.90
18083;DHT22;9168;51.194;6.840;2022-11-20T07:32:52;3.90;99.90
18083;DHT22;9168;51.194;6.840;2022-11-20T07:35:20;3.80;99.90
18083;DHT22;9168;51.194;6.840;2022-11-20T07:37:47;3.80;99.90
18083;DHT22;9168;51.194;6.840;2022-11-20T07:40:15;3.80;99.90
18083;DHT22;9168;51.194;6.840;2022-11-20T07:42:47;3.80;99.90
18083;DHT22;9168;51.194;6.840;2022-11-20T07:45:15;3.80;99.90
18083;DHT22;9168;51.194;6.840;2022-11-20T07:47:42;3.90;99.90
18083;DHT22;9168;51.194;6.840;2022-11-20T07:50:09;3.90;99.90
18083;DHT22;9168;51.194;6.840;2022-11-20T07:52:38;3.90;99.90
18083;DHT22;9168;51.194;6.840;2022-11-20T07:55:06;3.90;99.90
18083;DHT22;9168;51.194;6.840;2022-11-20T07:57:33;4.00;99.90
18083;DHT22;9168;51.194;6.840;2022-11-20T08:00:00;4.10;99.90
18083;DHT22;9168;51.194;6.840;2022-11-20T08:02:27;4.20;99.90
18083;DHT22;9168;51.194;6.840;2022-11-20T08:04:54;4.20;99.90
18083;DHT22;9168;51.194;6.840;2022-11-20T08:07:20;4.40;99.90
18083;DHT22;9168;51.194;6.840;2022-11-20T08:09:49;4.40;99.90
18083;DHT22;9168;51.194;6.840;2022-11-20T08:12:18;4.50;99.90
18083;DHT22;9168;51.194;6.840;2022-11-20T08:15:03;4.50;99.90
18083;DHT22;9168;51.194;6.840;2022-11-20T08:17:30;4.60;99.90
18083;DHT22;9168;51.194;6.840;2022-11-20T08:19:57;4.70;99.90
18083;DHT22;9168;51.194;6.840;2022-11-20T08:22:24;4.70;99.90
18083;DHT22;9168;51.194;6.840;2022-11-20T08:24:53;4.80;99.90
18083;DHT22;9168;51.194;6.840;2022-11-20T08:27:20;4.80;99.90
18083;DHT22;9168;51.194;6.840;2022-11-20T08:29:46;4.90;99.90
18083;DHT22;9168;51.194;6.840;2022-11-20T08:32:13;4.90;99.90
18083;DHT22;9168;51.194;6.840;2022-11-20T08:34:40;4.90;99.90
18083;DHT22;9168;51.194;6.840;2022-11-20T08:37:07;4.90;99.90
18083;DHT22;9168;51.194;6.840;2022-11-20T08:39:34;4.90;99.90
18083;DHT22;9168;51.194;6.840;2022-11-20T08:42:06;5.00;99.90
18083;DHT22;9168;51.194;6.840;2022-11-20T08:44:33;5.00;99.90
18083;DHT22;9168;51.194;6.840;2022-11-20T08:47:00;5.10;99.90
18083;DHT22;9168;51.194;6.840;2022-11-20T08:49:27;5.10;99.90
18083;DHT22;9168;51.194;6.840;2022-11-20T08:51:54;5.20;99.90
18083;DHT22;9168;51.194;6.840;2022-11-20T08:54:21;5.20;99.90
18083;DHT22;9168;51.194;6.840;2022-11-20T08:56:48;5.30;99.90
18083;DHT22;9168;51.194;6.840;2022-11-20T08:59:16;5.40;99.90
18083;DHT22;9168;51.194;6.840;2022-11-20T09:01:43;5.30;99.90
18083;DHT22;9168;51.194;6.840;2022-11-20T09:04:10;5.30;99.90
18083;DHT22;9168;51.194;6.840;2022-11-20T09:06:37;5.30;99.90
18083;DHT22;9168;51.194;6.840;2022-11-20T09:09:04;5.30;99.90
18083;DHT22;9168;51.194;6.840;2022-11-20T09:11:31;5.40;99.90
18083;DHT22;9168;51.194;6.840;2022-11-20T09:13:58;5.40;99.90
18083;DHT22;9168;51.194;6.840;2022-11-20T09:16:26;5.50;99.90
18083;DHT22;9168;51.194;6.840;2022-11-20T09:18:53;5.50;99.90
18083;DHT22;9168;51.194;6.840;2022-11-20T09:21:20;5.50;99.90
18083;DHT22;9168;51.194;6.840;2022-11-20T09:23:48;5.50;99.90
18083;DHT22;9168;51.194;6.840;2022-11-20T09:26:15;5.50;99.90
18083;DHT22;9168;51.194;6.840;2022-11-20T09:28:42;5.50;99.90
18083;DHT22;9168;51.194;6.840;2022-11-20T09:31:11;5.40;99.90
18083;DHT22;9168;51.194;6.840;2022-11-20T09:33:43;5.40;99.90
18083;DHT22;9168;51.194;6.840;2022-11-20T09:36:10;5.40;99.90
18083;DHT22;9168;51.194;6.840;2022-11-20T09:38:37;5.40;99.90
18083;DHT22;9168;51.194;6.840;2022-11-20T09:41:19;5.50;99.90
18083;DHT22;9168;51.194;6.840;2022-11-20T09:43:58;5.60;99.90
18083;DHT22;9168;51.194;6.840;2022-11-20T09:46:32;5.60;99.90
18083;DHT22;9168;51.194;6.840;2022-11-20T09:49:17;5.80;99.90
18083;DHT22;9168;51.194;6.840;2022-11-20T09:51:58;5.80;99.90
18083;DHT22;9168;51.194;6.840;2022-11-20T09:54:29;6.00;99.90
18083;DHT22;9168;51.194;6.840;2022-11-20T09:57:00;6.10;99.90
18083;DHT22;9168;51.194;6.840;2022-11-20T09:59:34;6.10;99.90
18083;DHT22;9168;51.194;6.840;2022-11-20T10:02:08;6.10;99.90
18083;DHT22;9168;51.194;6.840;2022-11-20T10:04:44;6.10;99.90
18083;DHT22;9168;51.194;6.840;2022-11-20T10:07:17;6.10;99.90
18083;DHT22;9168;51.194;6.840;2022-11-20T10:09:50;6.10;99.90
18083;DHT22;9168;51.194;6.840;2022-11-20T10:12:23;6.10;99.90
18083;DHT22;9168;51.194;6.840;2022-11-20T10:15:03;6.10;99.90
18083;DHT22;9168;51.194;6.840;2022-11-20T10:17:50;6.00;99.90
18083;DHT22;9168;51.194;6.840;2022-11-20T10:20:28;6.00;99.90
18083;DHT22;9168;51.194;6.840;2022-11-20T10:23:20;5.80;99.90
18083;DHT22;9168;51.194;6.840;2022-11-20T10:25:54;5.90;99.90
18083;DHT22;9168;51.194;6.840;2022-11-20T10:28:30;5.90;99.90
18083;DHT22;9168;51.194;6.840;2022-11-20T10:31:04;5.90;99.90
18083;DHT22;9168;51.194;6.840;2022-11-20T10:33:36;5.90;99.90
18083;DHT22;9168;51.194;6.840;2022-11-20T10:36:15;5.90;99.90
18083;DHT22;9168;51.194;6.840;2022-11-20T10:38:45;5.90;99.90
18083;DHT22;9168;51.194;6.840;2022-11-20T10:41:18;6.00;99.90
18083;DHT22;9168;51.194;6.840;2022-11-20T10:43:58;6.00;99.90
18083;DHT22;9168;51.194;6.840;2022-11-20T10:46:32;5.90;99.90
18083;DHT22;9168;51.194;6.840;2022-11-20T10:49:05;5.90;99.90
18083;DHT22;9168;51.194;6.840;2022-11-20T10:51:45;5.90;99.90
18083;DHT22;9168;51.194;6.840;2022-11-20T10:54:22;5.90;99.90
18083;DHT22;9168;51.194;6.840;2022-11-20T10:56:51;6.00;99.90
18083;DHT22;9168;51.194;6.840;2022-11-20T10:59:31;6.00;99.90
18083;DHT22;9168;51.194;6.840;2022-11-20T11:02:00;6.10;99.90
18083;DHT22;9168;51.194;6.840;2022-11-20T11:04:33;6.10;99.90
18083;DHT22;9168;51.194;6.840;2022-11-20T11:07:10;6.10;99.90
18083;DHT22;9168;51.194;6.840;2022-11-20T11:09:43;6.20;99.90
18083;DHT22;9168;51.194;6.840;2022-11-20T11:12:10;6.20;99.90
18083;DHT22;9168;51.194;6.840;2022-11-20T11:14:48;6.20;99.90
18083;DHT22;9168;51.194;6.840;2022-11-20T11:17:22;6.20;99.90
18083;DHT22;9168;51.194;6.840;2022-11-20T11:20:06;6.20;99.90
18083;DHT22;9168;51.194;6.840;2022-11-20T11:22:43;6.20;99.90
18083;DHT22;9168;51.194;6.840;2022-11-20T11:25:19;6.20;99.90
18083;DHT22;9168;51.194;6.840;2022-11-20T11:27:47;6.20;99.90
18083;DHT22;9168;51.194;6.840;2022-11-20T11:30:16;6.20;99.90
18083;DHT22;9168;51.194;6.840;2022-11-20T11:32:43;6.20;99.90
18083;DHT22;9168;51.194;6.840;2022-11-20T11:35:22;6.20;99.90
18083;DHT22;9168;51.194;6.840;2022-11-20T11:37:51;6.20;99.90
18083;DHT22;9168;51.194;6.840;2022-11-20T11:40:21;6.20;99.90
18083;DHT22;9168;51.194;6.840;2022-11-20T11:42:54;6.20;99.90
18083;DHT22;9168;51.194;6.840;2022-11-20T11:45:23;6.30;99.90
18083;DHT22;9168;51.194;6.840;2022-11-20T11:47:51;6.30;99.90
18083;DHT22;9168;51.194;6.840;2022-11-20T11:50:21;6.40;99.90
18083;DHT22;9168;51.194;6.840;2022-11-20T11:52:55;6.30;99.90
18083;DHT22;9168;51.194;6.840;2022-11-20T11:55:29;6.40;99.90
18083;DHT22;9168;51.194;6.840;2022-11-20T11:58:09;6.40;99.90
18083;DHT22;9168;51.194;6.840;2022-11-20T12:00:40;6.50;99.90
18083;DHT22;9168;51.194;6.840;2022-11-20T12:03:14;6.50;99.90
18083;DHT22;9168;51.194;6.840;2022-11-20T12:05:44;6.60;99.90
18083;DHT22;9168;51.194;6.840;2022-11-20T12:08:18;6.60;99.90
18083;DHT22;9168;51.194;6.840;2022-11-20T12:10:51;6.60;99.90
18083;DHT22;9168;51.194;6.840;2022-11-20T12:13:37;6.60;99.90
18083;DHT22;9168;51.194;6.840;2022-11-20T12:16:12;6.70;99.90
18083;DHT22;9168;51.194;6.840;2022-11-20T12:18:40;6.80;99.90
18083;DHT22;9168;51.194;6.840;2022-11-20T12:21:17;6.80;99.90
18083;DHT22;9168;51.194;6.840;2022-11-20T12:23:56;6.80;99.90
18083;DHT22;9168;51.194;6.840;2022-11-20T12:26:37;6.80;99.90
18083;DHT22;9168;51.194;6.840;2022-11-20T12:29:09;6.70;99.90
18083;DHT22;9168;51.194;6.840;2022-11-20T12:31:51;6.70;99.90
18083;DHT22;9168;51.194;6.840;2022-11-20T12:34:37;6.60;99.90
18083;DHT22;9168;51.194;6.840;2022-11-20T12:37:14;6.60;99.90
18083;DHT22;9168;51.194;6.840;2022-11-20T12:39:47;6.70;99.90
18083;DHT22;9168;51.194;6.840;2022-11-20T12:42:27;6.70;99.90
18083;DHT22;9168;51.194;6.840;2022-11-20T12:45:50;6.70;99.90
18083;DHT22;9168;51.194;6.840;2022-11-20T12:48:29;6.60;99.90
18083;DHT22;9168;51.194;6.840;2022-11-20T12:51:14;6.60;99.90
18083;DHT22;9168;51.194;6.840;2022-11-20T12:53:53;6.60;99.90
18083;DHT22;9168;51.194;6.840;2022-11-20T12:56:33;6.60;99.90
18083;DHT22;9168;51.194;6.840;2022-11-20T12:59:21;6.70;99.90
18083;DHT22;9168;51.194;6.840;2022-11-20T13:01:52;6.60;99.90
18083;DHT22;9168;51.194;6.840;2022-11-20T13:04:35;6.60;99.90
18083;DHT22;9168;51.194;6.840;2022-11-20T13:07:08;6.60;99.90
18083;DHT22;9168;51.194;6.840;2022-11-20T13:09:39;6.60;99.90
18083;DHT22;9168;51.194;6.840;2022-11-20T13:12:12;6.60;99.90
18083;DHT22;9168;51.194;6.840;2022-11-20T13:14:47;6.70;99.90
18083;DHT22;9168;51.194;6.840;2022-11-20T13:17:22;6.60;99.90
18083;DHT22;9168;51.194;6.840;2022-11-20T13:19:53;6.60;99.90
18083;DHT22;9168;51.194;6.840;2022-11-20T13:22:25;6.60;99.90
18083;DHT22;9168;51.194;6.840;2022-11-20T13:24:52;6.60;99.90
18083;DHT22;9168;51.194;6.840;2022-11-20T13:27:21;6.60;99.90
18083;DHT22;9168;51.194;6.840;2022-11-20T13:30:01;6.60;99.90
18083;DHT22;9168;51.194;6.840;2022-11-20T13:32:29;6.60;99.90
18083;DHT22;9168;51.194;6.840;2022-11-20T13:35:00;6.60;99.90
18083;DHT22;9168;51.194;6.840;2022-11-20T13:37:30;6.60;99.90
18083;DHT22;9168;51.194;6.840;2022-11-20T13:40:20;6.70;99.90
18083;DHT22;9168;51.194;6.840;2022-11-20T13:42:56;6.70;99.90
18083;DHT22;9168;51.194;6.840;2022-11-20T13:45:26;6.70;99.90
18083;DHT22;9168;51.194;6.840;2022-11-20T13:47:53;6.70;99.90
18083;DHT22;9168;51.194;6.840;2022-11-20T13:50:38;6.70;99.90
18083;DHT22;9168;51.194;6.840;2022-11-20T13:53:15;6.70;99.90
18083;DHT22;9168;51.194;6.840;2022-11-20T13:55:54;6.70;99.90
18083;DHT22;9168;51.194;6.840;2022-11-20T13:58:31;6.80;99.90
18083;DHT22;9168;51.194;6.840;2022-11-20T14:01:09;6.80;99.90
18083;DHT22;9168;51.194;6.840;2022-11-20T14:03:38;6.80;99.90
18083;DHT22;9168;51.194;6.840;2022-11-20T14:06:11;6.70;99.90
18083;DHT22;9168;51.194;6.840;2022-11-20T14:08:43;6.70;99.90
18083;DHT22;9168;51.194;6.840;2022-11-20T14:11:16;6.70;99.90
18083;DHT22;9168;51.194;6.840;2022-11-20T14:13:59;6.70;99.90
18083;DHT22;9168;51.194;6.840;2022-11-20T14:16:28;6.70;99.90
18083;DHT22;9168;51.194;6.840;2022-11-20T14:18:55;6.70;99.90
18083;DHT22;9168;51.194;6.840;2022-11-20T14:21:25;6.70;99.90
18083;DHT22;9168;51.194;6.840;2022-11-20T14:24:04;6.70;99.90
18083;DHT22;9168;51.194;6.840;2022-11-20T14:26:31;6.70;99.90
18083;DHT22;9168;51.194;6.840;2022-11-20T14:29:00;6.80;99.90
18083;DHT22;9168;51.194;6.840;2022-11-20T14:31:27;6.70;99.90
18083;DHT22;9168;51.194;6.840;2022-11-20T14:33:56;6.80;99.90
18083;DHT22;9168;51.194;6.840;2022-11-20T14:36:25;6.80;99.90
18083;DHT22;9168;51.194;6.840;2022-11-20T14:38:53;6.70;99.90
18083;DHT22;9168;51.194;6.840;2022-11-20T14:41:22;6.80;99.90
18083;DHT22;9168;51.194;6.840;2022-11-20T14:43:53;6.80;99.90
18083;DHT22;9168;51.194;6.840;2022-11-20T14:46:23;6.80;99.90
18083;DHT22;9168;51.194;6.840;2022-11-20T14:48:51;6.80;99.90
18083;DHT22;9168;51.194;6.840;2022-11-20T14:51:27;6.80;99.90
18083;DHT22;9168;51.194;6.840;2022-11-20T14:53:54;6.80;99.90
18083;DHT22;9168;51.194;6.840;2022-11-20T14:56:22;6.80;99.90
18083;DHT22;9168;51.194;6.840;2022-11-20T14:58:56;6.80;99.90
18083;DHT22;9168;51.194;6.840;2022-11-20T15:01:28;6.80;99.90
18083;DHT22;9168;51.194;6.840;2022-11-20T15:04:01;6.80;99.90
18083;DHT22;9168;51.194;6.840;2022-11-20T15:06:28;6.70;99.90
18083;DHT22;9168;51.194;6.840;2022-11-20T15:08:57;6.70;99.90
18083;DHT22;9168;51.194;6.840;2022-11-20T15:11:28;6.70;99.90
18083;DHT22;9168;51.194;6.840;2022-11-20T15:13:57;6.70;99.90
18083;DHT22;9168;51.194;6.840;2022-11-20T15:16:24;6.70;99.90
18083;DHT22;9168;51.194;6.840;2022-11-20T15:18:54;6.70;99.90
18083;DHT22;9168;51.194;6.840;2022-11-20T15:21:22;6.70;99.90
18083;DHT22;9168;51.194;6.840;2022-11-20T15:23:49;6.70;99.90
18083;DHT22;9168;51.194;6.840;2022-11-20T15:26:22;6.70;99.90
18083;DHT22;9168;51.194;6.840;2022-11-20T15:28:50;6.70;99.90
18083;DHT22;9168;51.194;6.840;2022-11-20T15:31:19;6.70;99.90
18083;DHT22;9168;51.194;6.840;2022-11-20T15:33:47;6.70;99.90
18083;DHT22;9168;51.194;6.840;2022-11-20T15:36:15;6.70;99.90
18083;DHT22;9168;51.194;6.840;2022-11-20T15:38:42;6.70;99.90
18083;DHT22;9168;51.194;6.840;2022-11-20T15:41:09;6.60;99.90
18083;DHT22;9168;51.194;6.840;2022-11-20T15:43:37;6.60;99.90
18083;DHT22;9168;51.194;6.840;2022-11-20T15:46:06;6.60;99.90
18083;DHT22;9168;51.194;6.840;2022-11-20T15:48:37;6.60;99.90
18083;DHT22;9168;51.194;6.840;2022-11-20T15:51:14;6.60;99.90
18083;DHT22;9168;51.194;6.840;2022-11-20T15:53:44;6.60;99.90
18083;DHT22;9168;51.194;6.840;2022-11-20T15:56:13;6.60;99.90
18083;DHT22;9168;51.194;6.840;2022-11-20T15:58:41;6.50;99.90
18083;DHT22;9168;51.194;6.840;2022-11-20T16:01:10;6.50;99.90
18083;DHT22;9168;51.194;6.840;2022-11-20T16:03:37;6.50;99.90
18083;DHT22;9168;51.194;6.840;2022-11-20T16:06:04;6.60;99.90
18083;DHT22;9168;51.194;6.840;2022-11-20T16:08:34;6.60;99.90
18083;DHT22;9168;51.194;6.840;2022-11-20T16:11:02;6.60;99.90
18083;DHT22;9168;51.194;6.840;2022-11-20T16:13:31;6.60;99.90
18083;DHT22;9168;51.194;6.840;2022-11-20T16:16:19;6.60;99.90
18083;DHT22;9168;51.194;6.840;2022-11-20T16:18:47;6.60;99.90
18083;DHT22;9168;51.194;6.840;2022-11-20T16:21:14;6.60;99.90